Ro Fjord — LFEI — position and weather

sailwx.info

Track history (hours):
 
Tides and Currents Weather Stations Pressure Air Temp Water Temp Dewpoint Dewpoint Depression Visibility Wind Speed Wind Dir Waves Ship Positions

Ro Fjord

Last reported at 2014-May-03 20:07 UTC. Time now 2014-Jul-28 04:11 UTC.
Position N 59°14' E 005°21'.
Warning: this ship's position is months out of date.

Length 72 m; draft 6.4 m.

Type: Cargo ship. MMSI: 257430000.

Date/timePositionNaut miles runAvg speedWind from/ knotsBaromVisibWave heightAir tempDewpointWater temp
2014-May-03 20:07N 59°14' E 005°21'5 9.1
2014-May-03 19:33N 59°09' E 005°23'9 9.5
2014-May-03 18:33N 59°14' E 005°39'1010.0
2014-May-03 17:33N 59°21' E 005°54'3 3.1
2014-May-03 16:33N 59°24' E 005°53'0 0.0
2014-May-03 15:33N 59°24' E 005°53'0 0.0
2014-May-03 14:33N 59°24' E 005°53'5 4.8
2014-May-03 13:33N 59°19' E 005°51'1110.6
2014-May-03 12:33N 59°12' E 005°35'7 7.3
2014-May-03 11:33N 59°12' E 005°20'13 4.0
2014-May-03 08:16N 59°25' E 005°16'0 0.0
2014-May-03 07:33N 59°25' E 005°16'  
2014-Apr-26 14:09N 59°14' E 005°21'6 9.5
2014-Apr-26 13:33N 59°09' E 005°24'10 9.6
2014-Apr-26 12:33N 59°14' E 005°39'10 9.8
2014-Apr-26 11:33N 59°20' E 005°54'3 3.2
2014-Apr-26 10:32N 59°24' E 005°53'0 0.0
2014-Apr-26 09:33N 59°24' E 005°53'3 2.7
2014-Apr-26 08:33N 59°21' E 005°56'7 6.6
2014-Apr-26 07:29N 59°17' E 006°06'4 3.8
2014-Apr-26 06:33N 59°13' E 006°07'0 0.0
2014-Apr-26 05:33N 59°13' E 006°07'0 0.0
2014-Apr-26 04:33N 59°13' E 006°07'8 7.6
2014-Apr-26 03:33N 59°20' E 006°00'6 6.1
2014-Apr-26 02:33N 59°24' E 005°52'0 0.0
2014-Apr-26 01:33N 59°24' E 005°52'3 3.5
2014-Apr-26 00:33N 59°22' E 005°56'9 9.2
2014-Apr-25 23:33N 59°14' E 006°07'1 1.0
2014-Apr-25 22:33N 59°13' E 006°07'1 0.8
2014-Apr-25 21:33N 59°14' E 006°07'9 9.2
2014-Apr-25 20:33N 59°21' E 005°56'4 3.6
2014-Apr-25 19:33N 59°24' E 005°52'0 0.0
2014-Apr-25 18:33N 59°24' E 005°52'0 0.0
2014-Apr-25 17:33N 59°24' E 005°52'8 7.9
2014-Apr-25 16:33N 59°17' E 005°46'1010.4
2014-Apr-25 15:33N 59°10' E 005°31'6 6.2
2014-Apr-25 14:32N 59°14' E 005°21'  
Track history (hours):
 
Tides and Currents Weather Stations Pressure Air Temp Water Temp Dewpoint Dewpoint Depression Visibility Wind Speed Wind Dir Waves Ship Positions

Ro Fjord

Last reported at 2014-May-03 20:07 UTC. Time now 2014-Jul-28 04:11 UTC.
Position N 59°14' E 005°21'.
Warning: this ship's position is months out of date.

Length 72 m; draft 6.4 m.

Type: Cargo ship. MMSI: 257430000.

Date/timePositionNaut miles runAvg speedWind from/ knotsBaromVisibWave heightAir tempDewpointWater temp
2014-May-03 20:07N 59°14' E 005°21'5 9.1
2014-May-03 19:33N 59°09' E 005°23'9 9.5
2014-May-03 18:33N 59°14' E 005°39'1010.0
2014-May-03 17:33N 59°21' E 005°54'3 3.1
2014-May-03 16:33N 59°24' E 005°53'0 0.0
2014-May-03 15:33N 59°24' E 005°53'0 0.0
2014-May-03 14:33N 59°24' E 005°53'5 4.8
2014-May-03 13:33N 59°19' E 005°51'1110.6
2014-May-03 12:33N 59°12' E 005°35'7 7.3
2014-May-03 11:33N 59°12' E 005°20'13 4.0
2014-May-03 08:16N 59°25' E 005°16'0 0.0
2014-May-03 07:33N 59°25' E 005°16'  
2014-Apr-26 14:09N 59°14' E 005°21'6 9.5
2014-Apr-26 13:33N 59°09' E 005°24'10 9.6
2014-Apr-26 12:33N 59°14' E 005°39'10 9.8
2014-Apr-26 11:33N 59°20' E 005°54'3 3.2
2014-Apr-26 10:32N 59°24' E 005°53'0 0.0
2014-Apr-26 09:33N 59°24' E 005°53'3 2.7
2014-Apr-26 08:33N 59°21' E 005°56'7 6.6
2014-Apr-26 07:29N 59°17' E 006°06'4 3.8
2014-Apr-26 06:33N 59°13' E 006°07'0 0.0
2014-Apr-26 05:33N 59°13' E 006°07'0 0.0
2014-Apr-26 04:33N 59°13' E 006°07'8 7.6
2014-Apr-26 03:33N 59°20' E 006°00'6 6.1
2014-Apr-26 02:33N 59°24' E 005°52'0 0.0
2014-Apr-26 01:33N 59°24' E 005°52'3 3.5
2014-Apr-26 00:33N 59°22' E 005°56'9 9.2
2014-Apr-25 23:33N 59°14' E 006°07'1 1.0
2014-Apr-25 22:33N 59°13' E 006°07'1 0.8
2014-Apr-25 21:33N 59°14' E 006°07'9 9.2
2014-Apr-25 20:33N 59°21' E 005°56'4 3.6
2014-Apr-25 19:33N 59°24' E 005°52'0 0.0
2014-Apr-25 18:33N 59°24' E 005°52'0 0.0
2014-Apr-25 17:33N 59°24' E 005°52'8 7.9
2014-Apr-25 16:33N 59°17' E 005°46'1010.4
2014-Apr-25 15:33N 59°10' E 005°31'6 6.2
2014-Apr-25 14:32N 59°14' E 005°21'  

Dump ship's entire track history